Tiempo atmosférico en la estación meteorológica de Ordizia, Gipuzkoa (290 m.)



Fecha
DESCASC
Temp. máxima en grados centígrados (hora)
DESCASC
Temp. mínima en grados centígrados (hora)
DESCASC
Temp. media en grados centígrados
DESCASC
Racha de viento máxima en m/sg (hora)
DESCASC
Velocidad máxima media en intervalos de 10 minutos(hora)
DESCASC
Precipitaciones diarias en mm
DESCASC
Precipitaciones de 00:00 a 06:00 en mm
DESCASC
Precipitaciones de 06:00 a 12:00 en mm
DESCASC
Precipitaciones de 12:00 a 18:00 en mm
DESCASC
Precipitaciones de 18:00 a 24:00 en mm
DESCASC
17-02-2019 19.6 (14:50) 12.1 (00:00) 15.9 13.61 (22:50) 8.61 (17:10) 0 0 0 0 0
06-02-2019 18.8 (15:40) 7.6 (00:00) 13.2 4.44 (18:30) 3.06 (18:30) 0 0 0 0 0
05-02-2019 11.6 (15:40) 5.8 (00:00) 8.7 3.61 (18:40) 2.22 (18:10) 0.8 0.8 0 0 0
04-02-2019 8.1 (16:30) -0.4 (00:00) 3.9 2.78 (07:20) 1.67 (07:10) 1 0.2 0 0.2 0.6
19-01-2019 9.9 (14:40) 2.2 (00:00) 6 8.89 (14:40) 5 (14:20) 0.8 0.4 0 0 0.4
07-02-2019 9.7 (15:30) 4.1 (00:00) 6.9 3.89 (16:20) 2.22 (16:20) 0.2 0 0 0.2 0
01-02-2019 12 (14:50) 3.3 (00:00) 7.6 19.17 (18:00) 9.72 (08:40) 3.4 1.6 0 1.4 0.4
08-02-2019 17.2 (15:30) 1.6 (00:00) 9.4 9.72 (13:20) 5.28 (13:20) 0 0 0 0 0
09-02-2019 16.7 (14:50) 5.5 (00:00) 11.1 14.17 (23:40) 6.39 (23:59) 0 0 0 0 0
12-02-2019 12.5 (15:40) 3.5 (00:00) 8 5.56 (16:00) 3.33 (15:10) 0 0 0 0 0
26-01-2019 13.3 (16:20) 5.4 (00:00) 9.4 3.89 (13:30) 2.5 (13:40) 0.2 0.2 0 0 0
13-02-2019 16.8 (16:40) 0.8 (00:00) 8.8 8.06 (14:50) 4.17 (14:30) 0 0 0 0 0
14-02-2019 18.6 (16:40) 9.3 (00:00) 14 14.72 (11:10) 8.06 (11:10) 0 0 0 0 0
15-02-2019 19.6 (15:40) 7.5 (00:00) 13.6 8.89 (02:40) 5.28 (03:20) 0 0 0 0 0
16-02-2019 17.4 (13:30) 3.3 (00:00) 10.3 14.72 (12:40) 8.06 (13:00) 0 0 0 0 0
29-01-2019 8.8 (16:50) 5 (00:00) 6.9 15.28 (16:20) 6.94 (17:00) 16.8 3.6 0.4 7.8 5
10-02-2019 13.9 (00:00) 6.1 (00:00) 10 13.89 (02:50) 8.89 (03:10) 6.6 0 1 5.2 0.4
22-01-2019 5.1 (15:00) 1.5 (00:00) 3.3 8.06 (18:20) 5 (18:20) 19.6 0 1.4 11.6 6.6
03-02-2019 5.3 (14:20) 1.5 (00:00) 3.4 13.06 (04:50) 3.89 (02:00) 8.2 4.2 2.8 1.2 0
21-01-2019 6.5 (16:30) 2.9 (00:00) 4.7 6.11 (09:50) 3.06 (10:10) 10.8 6 2.8 2 0
11-02-2019 8.9 (14:40) 5.2 (00:00) 7 8.61 (16:30) 3.33 (16:30) 6.2 0.6 4 1.4 0.2
30-01-2019 9.4 (16:00) 2.8 (00:00) 6.1 8.61 (23:30) 4.44 (23:20) 16.2 8.6 5.4 0 2.2
27-01-2019 7.6 (06:40) 4.8 (00:00) 6.2 14.17 (07:50) 6.39 (10:00) 23.6 0.8 6.4 8 8.4
31-01-2019 15.4 (17:50) 5.3 (00:00) 10.3 20.28 (18:00) 9.44 (19:00) 47.2 7.8 8.8 0.2 30.4
25-01-2019 9.4 (13:00) 4.2 (00:00) 6.8 9.17 (10:20) 4.17 (09:40) 21 7 9.6 2.2 2.2
20-01-2019 8.2 (15:00) 4.9 (00:00) 6.5 6.11 (10:30) 2.78 (10:30) 26.8 0.8 10.2 7.4 8.4
24-01-2019 5.5 (00:00) 3.1 (00:00) 4.3 10.83 (00:40) 3.61 (00:40) 55.2 29.2 14 7 5
28-01-2019 9.2 (14:30) 4.7 (00:00) 6.9 18.33 (09:00) 6.67 (07:10) 36.8 7.6 14.4 5 9.8
23-01-2019 8.9 (08:10) 3.8 (00:00) 6.3 18.33 (08:20) 7.22 (18:50) 93.2 14.4 21 22.6 35.2
02-02-2019 6.6 (13:40) 2 (00:00) 4.3 14.17 (10:10) 6.11 (10:10) 59.8 10.8 25.4 10.2 13.4

Gráficas

Temp. máximas Temp. mínimas Temp. medias Precipitaciones Rachas de viento máximas Velocidades máximas media en intervalos de 10 minutos

Datos horarios

Fecha y hora oficial Temperatura (ºC) Velocidad del viento (km/h) Dirección del viento Racha (km/h) Dirección de racha Precipitación (mm) Presión (hPa) Tendencia (hPa) Humedad (%)
2019-02-17 23:00:00 13.9 18 Sur 49 Sudoeste 0 -- -- 36
2019-02-17 22:00:00 13.7 8 Sudoeste 26 Sudoeste 0 -- -- 32
2019-02-17 21:00:00 14.1 10 Sur 30 Sudeste 0 -- -- 30
2019-02-17 20:00:00 14.6 7 Sudoeste 16 Sudoeste 0 -- -- 27
2019-02-17 19:00:00 15.6 8 Noroeste 21 Sudeste 0 -- -- 26
2019-02-17 18:00:00 16.8 5 Sudoeste 48 Este 0 -- -- 25
2019-02-17 17:00:00 17.6 28 Sudeste 46 Este 0 -- -- 23
2019-02-17 16:00:00 18.6 19 Sudeste 41 Sudeste 0 -- -- 24
2019-02-17 15:00:00 19.3 16 Sur 36 Sudoeste 0 -- -- 23
2019-02-17 14:00:00 19.2 13 Sudeste 43 Este 0 -- -- 21
2019-02-17 13:00:00 18.3 15 Sudeste 39 Sudeste 0 -- -- 19
2019-02-17 12:00:00 16.6 14 Oeste 31 Oeste 0 -- -- 23
2019-02-17 11:00:00 16.2 8 Sudoeste 36 Sudeste 0 -- -- 19
2019-02-17 10:00:00 15.1 13 Sudeste 37 Sudeste 0 -- -- 18
2019-02-17 09:00:00 12.9 7 Sudoeste 17 Sudoeste 0 -- -- 19
2019-02-17 08:00:00 12.1 9 Sudoeste 32 Sudeste 0 -- -- 21
2019-02-17 07:00:00 12.7 11 Oeste 37 Sudeste 0 -- -- 20
2019-02-17 06:00:00 12.7 6 Oeste 28 Sudeste 0 -- -- 22
2019-02-17 05:00:00 13.6 9 Sudoeste 40 Nordeste 0 -- -- 24
2019-02-17 04:00:00 13.9 14 Sudeste 39 Sudeste 0 -- -- 25
2019-02-17 03:00:00 13 15 Noroeste 28 Sudoeste 0 -- -- 27
2019-02-17 02:00:00 13.5 11 Oeste 33 Sudoeste 0 -- -- 26
2019-02-17 01:00:00 13.8 9 Sudoeste 31 Sur 0 -- -- 26
2019-02-17 00:00:00 13.9 8 Sudoeste 28 Sur 0 -- -- 30
2019-02-16 23:00:00 14.2 10 Sur 51 Este 0 -- -- 31
2019-02-16 22:00:00 14 12 Sur 43 Este 0 -- -- 30
2019-02-16 21:00:00 14.3 7 Sudeste 33 Sudeste 0 -- -- 29
2019-02-16 20:00:00 14.2 8 Sudoeste 23 Sudoeste 0 -- -- 34
2019-02-16 19:00:00 14.5 6 Sudoeste 29 Sudeste 0 -- -- 36
2019-02-16 18:00:00 16 9 Sudeste 27 Sudeste 0 -- -- 37
2019-02-16 17:00:00 17.2 6 Sudoeste 33 Sur 0 -- -- 35
2019-02-16 16:00:00 16.9 13 Sur 35 Sudeste 0 -- -- 37
2019-02-16 15:00:00 17.1 18 Sudeste 36 Sudeste 0 -- -- 35
2019-02-16 14:00:00 17.3 16 Sudeste 37 Sudeste 0 -- -- 39
2019-02-16 13:00:00 16.5 29 Sudeste 53 Sudeste 0 -- -- 44
2019-02-16 12:00:00 16.6 15 Sur 34 Sudeste 0 -- -- 43
2019-02-16 11:00:00 15.2 18 Sudeste 41 Sudeste 0 -- -- 45
2019-02-16 10:00:00 11.8 14 Oeste 24 Oeste 0 -- -- 50
2019-02-16 09:00:00 7.8 9 Noroeste 20 Oeste 0 -- -- 66
2019-02-16 08:00:00 3.9 8 Este 13 Oeste 0 -- -- 83
2019-02-16 07:00:00 3.5 4 Norte 9 Este 0 -- -- 85
2019-02-16 06:00:00 4.3 3 Nordeste 9 Sudeste 0 -- -- 79
2019-02-16 05:00:00 4.1 2 Sudeste 7 Este 0 -- -- 82
2019-02-16 04:00:00 4.7 2 Sudoeste 8 Oeste 0 -- -- 78
2019-02-16 03:00:00 5.1 3 Norte 7 Este 0 -- -- 75
2019-02-16 02:00:00 5.9 2 Sudeste 8 Nordeste 0 -- -- 70
2019-02-16 01:00:00 6.4 5 Este 9 Este 0 -- -- 68
2019-02-16 00:00:00 7.5 2 Este 10 Sudeste 0 -- -- 60
2019-02-15 23:00:00 8.2 5 Nordeste 13 Este 0 -- -- 57
2019-02-15 22:00:00 9.9 3 Norte 10 Sudoeste 0 -- -- 51
2019-02-15 21:00:00 10.9 5 Sudoeste 18 Oeste 0 -- -- 47
2019-02-15 20:00:00 13.7 11 Oeste 21 Oeste 0 -- -- 38
2019-02-15 19:00:00 15 11 Noroeste 15 Noroeste 0 -- -- 27
2019-02-15 18:00:00 17.7 7 Sudoeste 17 Oeste 0 -- -- 23
2019-02-15 17:00:00 19.4 8 Sudoeste 21 Sudoeste 0 -- -- 21
2019-02-15 16:00:00 19.6 8 Sur 28 Sudeste 0 -- -- 23
2019-02-15 15:00:00 19.1 11 Sur 29 Sudeste 0 -- -- 24
2019-02-15 14:00:00 18.3 15 Sudeste 28 Sudeste 0 -- -- 25
2019-02-15 13:00:00 17.5 12 Sur 26 Sudoeste 0 -- -- 30
2019-02-15 12:00:00 15.9 14 Sudoeste 27 Oeste 0 -- -- 35
2019-02-15 11:00:00 14 8 Oeste 18 Oeste 0 -- -- 39
2019-02-15 10:00:00 12 9 Oeste 17 Oeste 0 -- -- 39
2019-02-15 09:00:00 10.4 6 Oeste 17 Oeste 0 -- -- 38
2019-02-15 08:00:00 10.4 9 Oeste 21 Oeste 0 -- -- 40
2019-02-15 07:00:00 11.3 12 Oeste 21 Oeste 0 -- -- 40
2019-02-15 06:00:00 11.3 13 Oeste 24 Oeste 0 -- -- 42
2019-02-15 05:00:00 12 18 Oeste 30 Oeste 0 -- -- 40
2019-02-15 04:00:00 12.2 14 Oeste 31 Oeste 0 -- -- 43
2019-02-15 03:00:00 12.2 17 Oeste 32 Oeste 0 -- -- 44
2019-02-15 02:00:00 11.8 15 Oeste 24 Oeste 0 -- -- 45
2019-02-15 01:00:00 12.3 14 Oeste 22 Oeste 0 -- -- 43
2019-02-15 00:00:00 12.2 13 Oeste 26 Oeste 0 -- -- 44
2019-02-14 23:00:00 12.8 18 Oeste 29 Oeste 0 -- -- 39
2019-02-14 22:00:00 12.3 17 Oeste 26 Oeste 0 -- -- 39
2019-02-14 21:00:00 13.3 18 Oeste 31 Oeste 0 -- -- 35
2019-02-14 20:00:00 13.8 17 Oeste 27 Oeste 0 -- -- 31
2019-02-14 19:00:00 14.1 14 Oeste 24 Oeste 0 -- -- 31
2019-02-14 18:00:00 16.4 12 Oeste 18 Oeste 0 -- -- 32
2019-02-14 17:00:00 18 6 Sudoeste 20 Oeste 0 -- -- 29
2019-02-14 16:00:00 18.3 8 Sudoeste 35 Sudeste 0 -- -- 28
2019-02-14 15:00:00 18 10 Sur 31 Sudeste 0 -- -- 32
2019-02-14 14:00:00 17.7 12 Sur 42 Sudeste 0 -- -- 34
2019-02-14 13:00:00 16.5 13 Sur 37 Este 0 -- -- 28
2019-02-14 12:00:00 15 8 Sudoeste 53 Sudeste 0 -- -- 37
2019-02-14 11:00:00 14 26 Sudeste 49 Sudeste 0 -- -- 44
2019-02-14 10:00:00 13.2 9 Oeste 26 Oeste 0 -- -- 42
2019-02-14 09:00:00 11.2 14 Oeste 26 Noroeste 0 -- -- 53
2019-02-14 08:00:00 10.3 16 Oeste 28 Oeste 0 -- -- 56
2019-02-14 07:00:00 11 15 Oeste 26 Oeste 0 -- -- 55
2019-02-14 06:00:00 11.1 16 Oeste 30 Oeste 0 -- -- 55
2019-02-14 05:00:00 11.3 15 Oeste 32 Oeste 0 -- -- 56
2019-02-14 04:00:00 10.6 16 Oeste 32 Oeste 0 -- -- 57
2019-02-14 03:00:00 9.7 10 Oeste 26 Noroeste 0 -- -- 59
2019-02-14 02:00:00 10.4 10 Oeste 22 Oeste 0 -- -- 61
2019-02-14 01:00:00 10 10 Noroeste 22 Oeste 0 -- -- 62
2019-02-14 00:00:00 10.7 8 Oeste 20 Oeste 0 -- -- 59
2019-02-13 23:00:00 10.3 8 Oeste 17 Noroeste 0 -- -- 62
2019-02-13 22:00:00 11.2 8 Noroeste 15 Oeste 0 -- -- 58
2019-02-13 21:00:00 11.6 7 Oeste 16 Oeste 0 -- -- 58
2019-02-13 20:00:00 12.3 4 Oeste 8 Sudoeste 0 -- -- 52
2019-02-13 19:00:00 13.7 4 Sudoeste 17 Oeste 0 -- -- 48
2019-02-13 18:00:00 16 6 Sudoeste 17 Sudoeste 0 -- -- 42
2019-02-13 17:00:00 16.6 8 Sur 27 Sudeste 0 -- -- 43
2019-02-13 16:00:00 16.7 10 Sur 24 Sudeste 0 -- -- 45
2019-02-13 15:00:00 16.3 14 Sur 29 Sudeste 0 -- -- 44
2019-02-13 14:00:00 15.1 6 Sudeste 10 Sur 0 -- -- 55
2019-02-13 13:00:00 10.6 3 Sudeste 10 Sur 0 -- -- 83
2019-02-13 12:00:00 6 2 Sudoeste 8 Sudeste 0 -- -- 100
2019-02-13 11:00:00 2.5 2 Oeste 6 Oeste 0 -- -- 100
2019-02-13 10:00:00 1.2 3 Oeste 6 Oeste 0 -- -- 100
2019-02-13 09:00:00 0.8 2 Oeste 5 Oeste 0 -- -- 100
2019-02-13 08:00:00 1.1 2 Oeste 5 Noroeste 0 -- -- 100
2019-02-13 07:00:00 1.1 2 Noroeste 6 Noroeste 0 -- -- 100
2019-02-13 06:00:00 1.5 3 Sur 5 Sur 0 -- -- 100
2019-02-13 05:00:00 1.8 2 Oeste 5 Sudoeste 0 -- -- 100
2019-02-13 04:00:00 1.9 0 Calma 5 Oeste 0 -- -- 100
2019-02-13 03:00:00 2.1 0 Calma 7 Noroeste 0 -- -- 100
2019-02-13 02:00:00 2.5 0 Calma 3 Oeste 0 -- -- 99
2019-02-13 01:00:00 3.2 2 Oeste 5 Sudoeste 0 -- -- 99
2019-02-13 00:00:00 3.5 2 Sudoeste 5 Oeste 0 -- -- 98
2019-02-12 23:00:00 4.3 0 Calma 5 Sudoeste 0 -- -- 97
2019-02-12 22:00:00 5 2 Oeste 6 Sudoeste 0 -- -- 95
2019-02-12 21:00:00 5.9 5 Oeste 6 Oeste 0 -- -- 91
2019-02-12 20:00:00 7.3 3 Noroeste 6 Este 0 -- -- 87
2019-02-12 19:00:00 9 4 Este 14 Este 0 -- -- 78
2019-02-12 18:00:00 10.4 8 Nordeste 17 Este 0 -- -- 71
2019-02-12 17:00:00 11.7 8 Este 19 Este 0 -- -- 67
2019-02-12 16:00:00 12.2 12 Este 20 Este 0 -- -- 61
2019-02-12 15:00:00 12.1 10 Sudeste 15 Este 0 -- -- 60
2019-02-12 14:00:00 11.1 8 Sudeste 12 Este 0 -- -- 70
2019-02-12 13:00:00 8.6 4 Sur 10 Sudeste 0 -- -- 100
2019-02-12 12:00:00 5.6 3 Sur 8 Sudeste 0 -- -- 100
2019-02-12 11:00:00 4.4 4 Sudoeste 8 Sudeste 0 -- -- 100
2019-02-12 10:00:00 4 3 Noroeste 7 Oeste 0 -- -- 100
2019-02-12 09:00:00 3.6 3 Oeste 5 Oeste 0 -- -- 100
2019-02-12 08:00:00 3.5 4 Noroeste 5 Noroeste 0 -- -- 100
2019-02-12 07:00:00 3.7 2 Norte 6 Sudoeste 0 -- -- 100
2019-02-12 06:00:00 4 4 Este 7 Este 0 -- -- 100
2019-02-12 05:00:00 4.2 4 Noroeste 6 Este 0 -- -- 100
2019-02-12 04:00:00 4.3 2 Este 6 Oeste 0 -- -- 100
2019-02-12 03:00:00 4.7 2 Sudeste 3 Sudeste 0 -- -- 100
2019-02-12 02:00:00 5.3 2 Noroeste 3 Noroeste 0 -- -- 100
2019-02-12 01:00:00 5.2 3 Este 6 Noroeste 0 -- -- 100
2019-02-12 00:00:00 5.3 4 Nordeste 8 Noroeste 0 -- -- 100
2019-02-11 23:00:00 5.4 3 Este 4 Este 0 -- -- 98
2019-02-11 22:00:00 6.2 3 Oeste 6 Este 0.2 -- -- 97
2019-02-11 21:00:00 6.5 3 Sudeste 8 Este 0 -- -- 94
2019-02-11 20:00:00 7.5 2 Sudoeste 18 Noroeste 0 -- -- 86
2019-02-11 19:00:00 7.9 4 Noroeste 10 Norte 0 -- -- 86
2019-02-11 18:00:00 7.8 3 Noroeste 12 Oeste 0 -- -- 85
2019-02-11 17:00:00 8.2 3 Sudeste 31 Noroeste 0.6 -- -- 86
2019-02-11 16:00:00 8.9 2 Este 14 Oeste 0 -- -- 87
2019-02-11 15:00:00 8.7 5 Oeste 13 Oeste 0 -- -- 90
2019-02-11 14:00:00 8.4 4 Sudeste 10 Sudoeste 0.4 -- -- 93
2019-02-11 13:00:00 8.1 5 Oeste 17 Noroeste 0.4 -- -- 89
2019-02-11 12:00:00 8 8 Sudeste 12 Sudeste 0.8 -- -- 97
2019-02-11 11:00:00 6.8 8 Este 11 Este 0.2 -- -- 99
2019-02-11 10:00:00 6.2 3 Sudeste 6 Este 1.2 -- -- 99
2019-02-11 09:00:00 5.9 3 Sudeste 11 Este 1.4 -- -- 98
2019-02-11 08:00:00 6 5 Nordeste 10 Nordeste 0.4 -- -- 96
2019-02-11 07:00:00 6.1 3 Sudoeste 6 Sur 0 -- -- 95
2019-02-11 06:00:00 6.6 3 Sur 9 Sudoeste 0.6 -- -- 91
2019-02-11 05:00:00 7.4 9 Noroeste 21 Noroeste 0 -- -- 84
2019-02-11 04:00:00 6.4 10 Noroeste 24 Noroeste 0 -- -- 91
2019-02-11 03:00:00 5.7 3 Nordeste 8 Noroeste 0 -- -- 94
2019-02-11 02:00:00 5.5 3 Noroeste 9 Noroeste 0 -- -- 97
2019-02-11 01:00:00 5.6 3 Oeste 9 Nordeste 0 -- -- 95
2019-02-11 00:00:00 6.2 3 Nordeste 8 Noroeste 0 -- -- 95
2019-02-10 23:00:00 6.8 3 Sur 19 Noroeste 0.4 -- -- 93
2019-02-10 22:00:00 7.4 5 Noroeste 9 Noroeste 0 -- -- 88
2019-02-10 21:00:00 7.4 5 Norte 11 Este 0 -- -- 92
2019-02-10 20:00:00 7.4 2 Sudeste 10 Este 0 -- -- 95
2019-02-10 19:00:00 7.5 6 Este 19 Sudeste 0 -- -- 95
2019-02-10 18:00:00 7.8 8 Este 12 Este 0.2 -- -- 96
2019-02-10 17:00:00 8.3 4 Sudoeste 20 Norte 1.4 -- -- 94
2019-02-10 16:00:00 9 7 Norte 19 Noroeste 0.6 -- -- 92
2019-02-10 15:00:00 9.5 6 Sudoeste 14 Oeste 1 -- -- 92
2019-02-10 14:00:00 9.5 4 Nordeste 14 Sudoeste 0.8 -- -- 95
2019-02-10 13:00:00 9.6 9 Oeste 21 Oeste 1.2 -- -- 91
2019-02-10 12:00:00 10.9 4 Sudeste 45 Oeste 0.6 -- -- 89
2019-02-10 11:00:00 12.7 17 Oeste 44 Oeste 0 -- -- 70
2019-02-10 10:00:00 12 6 Norte 31 Sudeste 0 -- -- 71
2019-02-10 09:00:00 10.7 13 Sudoeste 28 Sur 0.2 -- -- 80
2019-02-10 08:00:00 10.5 14 Oeste 33 Sudoeste 0.2 -- -- 81
2019-02-10 07:00:00 12.6 20 Sudoeste 50 Oeste 0 -- -- 62
2019-02-10 06:00:00 12.7 23 Oeste 39 Sudoeste 0 -- -- 58
2019-02-10 05:00:00 11.9 10 Oeste 31 Oeste 0 -- -- 59
2019-02-10 04:00:00 11.9 18 Oeste 47 Oeste 0 -- -- 59
2019-02-10 03:00:00 12.1 27 Oeste 50 Oeste 0 -- -- 57
2019-02-10 02:00:00 12.5 26 Oeste 50 Oeste 0 -- -- 56
2019-02-10 01:00:00 13.5 22 Oeste 46 Oeste 0 -- -- 52
2019-02-10 00:00:00 13.9 23 Oeste 51 Sudoeste 0 -- -- 53
2019-02-09 23:00:00 13.7 16 Sudoeste 40 Sur 0 -- -- 55
2019-02-09 22:00:00 13 13 Sur 32 Sur 0 -- -- 60
2019-02-09 21:00:00 12.5 6 Sudeste 17 Sudeste 0 -- -- 64
2019-02-09 20:00:00 12.9 13 Sur 27 Sudeste 0 -- -- 63
2019-02-09 19:00:00 13.4 15 Sur 28 Sur 0 -- -- 64
2019-02-09 18:00:00 14.3 8 Sudoeste 35 Sudoeste 0 -- -- 57
2019-02-09 17:00:00 15.2 20 Oeste 33 Sudoeste 0 -- -- 54
2019-02-09 16:00:00 15.6 19 Oeste 35 Oeste 0 -- -- 55
2019-02-09 15:00:00 15.8 18 Oeste 32 Oeste 0 -- -- 55
2019-02-09 14:00:00 16.1 13 Sudoeste 27 Sudeste 0 -- -- 55
2019-02-09 13:00:00 15.3 9 Sur 22 Sudoeste 0 -- -- 58
2019-02-09 12:00:00 13.1 5 Sudoeste 8 Oeste 0 -- -- 69
2019-02-09 11:00:00 9.5 2 Sudeste 6 Sudeste 0 -- -- 85
2019-02-09 10:00:00 6.7 3 Nordeste 8 Noroeste 0 -- -- 91
2019-02-09 09:00:00 5.5 3 Oeste 6 Oeste 0 -- -- 91
2019-02-09 08:00:00 6 0 Calma 6 Sudoeste 0 -- -- 88
2019-02-09 07:00:00 6.3 0 Calma 7 Noroeste 0 -- -- 88
2019-02-09 06:00:00 7.6 2 Sudoeste 5 Este 0 -- -- 82
2019-02-09 05:00:00 9.4 3 Norte 9 Noroeste 0 -- -- 74
2019-02-09 04:00:00 9.1 5 Noroeste 8 Noroeste 0 -- -- 75
2019-02-09 03:00:00 10.5 0 Calma 9 Oeste 0 -- -- 67
2019-02-09 02:00:00 10.7 4 Este 5 Este 0 -- -- 65
2019-02-09 01:00:00 11.2 2 Sudeste 20 Oeste 0 -- -- 63
2019-02-09 00:00:00 11.7 8 Oeste 18 Oeste 0 -- -- 62
2019-02-08 23:00:00 11.8 7 Oeste 16 Oeste 0 -- -- 62
2019-02-08 22:00:00 10.6 4 Sudoeste 12 Sudeste 0 -- -- 71
2019-02-08 21:00:00 11.2 10 Oeste 24 Oeste 0 -- -- 65
2019-02-08 20:00:00 11.9 5 Noroeste 21 Oeste 0 -- -- 61
2019-02-08 19:00:00 14.1 14 Noroeste 24 Oeste 0 -- -- 48
2019-02-08 18:00:00 15.3 18 Oeste 29 Oeste 0 -- -- 47
2019-02-08 17:00:00 17.2 6 Oeste 20 Sur 0 -- -- 48
2019-02-08 16:00:00 16.6 17 Sur 28 Sudoeste 0 -- -- 49
2019-02-08 15:00:00 16.7 12 Sur 30 Sur 0 -- -- 52
2019-02-08 14:00:00 15.4 18 Sur 35 Sudeste 0 -- -- 53
2019-02-08 13:00:00 14.1 17 Sur 32 Sudeste 0 -- -- 58
2019-02-08 12:00:00 12.9 17 Sur 31 Sudeste 0 -- -- 61
2019-02-08 11:00:00 11.4 11 Sudoeste 24 Oeste 0 -- -- 67
2019-02-08 10:00:00 9.1 10 Sudoeste 26 Sudoeste 0 -- -- 76
2019-02-08 09:00:00 6.2 9 Oeste 20 Sudoeste 0 -- -- 100
2019-02-08 08:00:00 1.8 6 Oeste 12 Noroeste 0 -- -- 100
2019-02-08 07:00:00 1.6 4 Este 7 Norte 0 -- -- 100
2019-02-08 06:00:00 2 0 Calma 6 Norte 0 -- -- 100
2019-02-08 05:00:00 2.1 0 Calma 5 Oeste 0 -- -- 100
2019-02-08 04:00:00 2.2 4 Noroeste 6 Noroeste 0 -- -- 100
2019-02-08 03:00:00 2.7 3 Este 5 Noroeste 0 -- -- 100
2019-02-08 02:00:00 3.2 0 Calma 4 Noroeste 0 -- -- 100
2019-02-08 01:00:00 3.7 2 Oeste 5 Noroeste 0 -- -- 99
2019-02-08 00:00:00 4.1 0 Calma 6 Sudoeste 0 -- -- 99
2019-02-07 23:00:00 5 3 Noroeste 5 Sudoeste 0 -- -- 97
2019-02-07 22:00:00 6 0 Calma 6 Sudoeste 0 -- -- 95
2019-02-07 21:00:00 7.2 0 Calma 6 Este 0 -- -- 94
2019-02-07 20:00:00 8.1 0 Calma 8 Este 0 -- -- 92
2019-02-07 19:00:00 8.8 5 Este 6 Este 0 -- -- 91
2019-02-07 18:00:00 9.4 2 Nordeste 7 Este 0 -- -- 88
2019-02-07 17:00:00 9.7 4 Sudeste 14 Norte 0 -- -- 87
2019-02-07 16:00:00 9.6 5 Noroeste 12 Noroeste 0 -- -- 84
2019-02-07 15:00:00 9.4 5 Oeste 9 Oeste 0 -- -- 92
2019-02-07 14:00:00 9.2 3 Sudeste 7 Este 0.2 -- -- 96
2019-02-07 13:00:00 8.6 4 Oeste 7 Oeste 0 -- -- 94
2019-02-07 12:00:00 8 0 Calma 5 Sudeste 0 -- -- 99
2019-02-07 11:00:00 6.8 0 Calma 5 Noroeste 0 -- -- 100
2019-02-07 10:00:00 6.3 3 Noroeste 5 Oeste 0 -- -- 100
2019-02-07 09:00:00 5.9 2 Este 5 Este 0 -- -- 100
2019-02-07 08:00:00 5.7 4 Noroeste 5 Noroeste 0 -- -- 99
2019-02-07 07:00:00 5.7 0 Calma 6 Oeste 0 -- -- 98
2019-02-07 06:00:00 6.1 0 Calma 4 Noroeste 0 -- -- 98
2019-02-07 05:00:00 6.6 2 Sudoeste 8 Noroeste 0 -- -- 95
2019-02-07 04:00:00 6.7 3 Noroeste 5 Oeste 0 -- -- 96
2019-02-07 03:00:00 7.4 3 Noroeste 5 Noroeste 0 -- -- 94
2019-02-07 02:00:00 7.5 2 Noroeste 6 Noroeste 0 -- -- 93
2019-02-07 01:00:00 7.7 2 Oeste 5 Este 0 -- -- 91
2019-02-07 00:00:00 8.7 3 Norte 6 Oeste 0 -- -- 87
2019-02-06 23:00:00 10 2 Oeste 7 Sudoeste 0 -- -- 79
2019-02-06 22:00:00 11.1 4 Oeste 8 Oeste 0 -- -- 74
2019-02-06 21:00:00 11.4 8 Oeste 13 Oeste 0 -- -- 73
2019-02-06 20:00:00 13.5 5 Oeste 11 Noroeste 0 -- -- 60
2019-02-06 19:00:00 15.2 7 Oeste 16 Oeste 0 -- -- 52
2019-02-06 18:00:00 17 4 Oeste 14 Sudoeste 0 -- -- 58
2019-02-06 17:00:00 18.1 6 Sudoeste 13 Oeste 0 -- -- 55
2019-02-06 16:00:00 18.7 4 Sudeste 10 Sudoeste 0 -- -- 54
2019-02-06 15:00:00 17.5 4 Sur 12 Este 0 -- -- 68
2019-02-06 14:00:00 15.4 3 Sudeste 10 Sudeste 0 -- -- 76
2019-02-06 13:00:00 13.5 5 Sudeste 12 Sudeste 0 -- -- 81
2019-02-06 12:00:00 11.9 5 Sudeste 12 Sudeste 0 -- -- 87
2019-02-06 11:00:00 9.5 4 Sudeste 7 Sudeste 0 -- -- 99
2019-02-06 10:00:00 8.3 3 Sudeste 5 Oeste 0 -- -- 100
2019-02-06 09:00:00 7.6 3 Oeste 5 Oeste 0 -- -- 100
2019-02-06 08:00:00 8 3 Noroeste 5 Oeste 0 -- -- 100
2019-02-06 07:00:00 7.8 3 Noroeste 5 Noroeste 0 -- -- 100
2019-02-06 06:00:00 7.8 4 Noroeste 6 Oeste 0 -- -- 100
2019-02-06 05:00:00 8 0 Calma 4 Sudoeste 0 -- -- 100
2019-02-06 04:00:00 8.6 2 Noroeste 6 Oeste 0 -- -- 100
2019-02-06 03:00:00 8.9 3 Sudeste 5 Este 0 -- -- 100
2019-02-06 02:00:00 9 0 Calma 4 Sudeste 0 -- -- 100
2019-02-06 01:00:00 9.1 0 Calma 4 Nordeste 0 -- -- 100
2019-02-06 00:00:00 9.2 2 Sudeste 6 Este 0 -- -- 100
2019-02-05 23:00:00 9.4 0 Calma 4 Oeste 0 -- -- 100
2019-02-05 22:00:00 9.6 0 Calma 4 Este 0 -- -- 100
2019-02-05 21:00:00 9.8 0 Calma 5 Nordeste 0 -- -- 100
2019-02-05 20:00:00 10.1 4 Este 9 Este 0 -- -- 99
2019-02-05 19:00:00 10.2 7 Este 13 Este 0 -- -- 98
2019-02-05 18:00:00 11 5 Nordeste 13 Nordeste 0 -- -- 96
2019-02-05 17:00:00 11.3 6 Este 9 Este 0 -- -- 95
2019-02-05 16:00:00 11.5 4 Este 10 Sudeste 0 -- -- 93
2019-02-05 15:00:00 11.4 8 Este 11 Este 0 -- -- 95
2019-02-05 14:00:00 10.4 6 Este 9 Este 0 -- -- 99
2019-02-05 13:00:00 10 3 Sudeste 5 Este 0 -- -- 100
2019-02-05 12:00:00 8.9 0 Calma 5 Sudeste 0 -- -- 100
2019-02-05 11:00:00 7.5 0 Calma 5 Este 0 -- -- 100
2019-02-05 10:00:00 6.9 0 Calma 4 Sur 0 -- -- 100
2019-02-05 09:00:00 6.5 3 Oeste 6 Oeste 0 -- -- 100
2019-02-05 08:00:00 6.2 2 Oeste 6 Noroeste 0 -- -- 100
2019-02-05 07:00:00 6.2 4 Sudoeste 8 Noroeste 0 -- -- 100
2019-02-05 06:00:00 6.1 0 Calma 5 Noroeste 0 -- -- 100
2019-02-05 05:00:00 6.2 3 Noroeste 6 Noroeste 0 -- -- 100
2019-02-05 04:00:00 6 3 Este 6 Sudeste 0.2 -- -- 100
2019-02-05 03:00:00 5.8 0 Calma 6 Sudoeste 0.2 -- -- 100
2019-02-05 02:00:00 5.8 3 Sudoeste 7 Oeste 0.2 -- -- 100
2019-02-05 01:00:00 5.8 4 Oeste 6 Oeste 0.2 -- -- 100
2019-02-05 00:00:00 5.9 4 Oeste 7 Oeste 0.4 -- -- 99
2019-02-04 23:00:00 6.1 3 Sudoeste 8 Noroeste 0.2 -- -- 98
2019-02-04 22:00:00 6.3 3 Oeste 6 Oeste 0 -- -- 96
2019-02-04 21:00:00 6.4 0 Calma 4 Oeste 0.2 -- -- 95
2019-02-04 20:00:00 6.6 3 Noroeste 9 Oeste 0 -- -- 93
2019-02-04 19:00:00 6.8 3 Oeste 9 Oeste 0 -- -- 93
2019-02-04 18:00:00 7.5 4 Noroeste 6 Noroeste 0.2 -- -- 90
2019-02-04 17:00:00 7.8 3 Este 6 Este 0 -- -- 91
2019-02-04 16:00:00 7.9 3 Oeste 5 Oeste 0 -- -- 91
2019-02-04 15:00:00 7.2 2 Sudoeste 5 Sur 0 -- -- 100
2019-02-04 14:00:00 6 3 Sur 6 Sudeste 0 -- -- 100
2019-02-04 13:00:00 3.6 3 Sur 5 Oeste 0 -- -- 100
2019-02-04 12:00:00 1.5 2 Oeste 6 Sudoeste 0 -- -- 100
2019-02-04 11:00:00 0.3 3 Sudoeste 6 Noroeste 0 -- -- 100
2019-02-04 10:00:00 -0.1 2 Sudeste 8 Sudoeste 0 -- -- 100
2019-02-04 09:00:00 -0.4 3 Sudoeste 8 Oeste 0 -- -- 100
2019-02-04 08:00:00 -0.3 5 Oeste 10 Oeste 0 -- -- 100
2019-02-04 07:00:00 -0.1 3 Noroeste 7 Oeste 0 -- -- 100
2019-02-04 06:00:00 0.3 4 Oeste 6 Oeste 0 -- -- 100
2019-02-04 05:00:00 0.5 0 Calma 5 Oeste 0 -- -- 100
2019-02-04 04:00:00 0.7 3 Noroeste 5 Noroeste 0.2 -- -- 100
2019-02-04 03:00:00 1.1 4 Sudeste 6 Sudeste 0 -- -- 100
2019-02-04 02:00:00 1.3 0 Calma 4 Oeste 0 -- -- 100
2019-02-04 01:00:00 1.4 0 Calma 5 Noroeste 0 -- -- 100
2019-02-04 00:00:00 1.5 0 Calma 6 Oeste 0 -- -- 100
2019-02-03 23:00:00 1.6 0 Calma 6 Oeste 0 -- -- 100
2019-02-03 22:00:00 1.8 2 Oeste 8 Noroeste 0 -- -- 100
2019-02-03 21:00:00 2 2 Sudeste 4 Sudeste 0 -- -- 99
2019-02-03 20:00:00 2.3 0 Calma 4 Este 0 -- -- 98
2019-02-03 19:00:00 2.7 0 Calma 6 Este 0 -- -- 97
2019-02-03 18:00:00 3.6 0 Calma 6 Sudeste 0 -- -- 94
2019-02-03 17:00:00 4.7 4 Sudoeste 8 Sur 0.2 -- -- 93
2019-02-03 16:00:00 4.3 3 Norte 8 Nordeste 0.6 -- -- 90
2019-02-03 15:00:00 4.6 7 Noroeste 17 Este 0.2 -- -- 90
2019-02-03 14:00:00 4.6 7 Este 20 Este 0 -- -- 87
2019-02-03 13:00:00 4.2 6 Nordeste 23 Este 0.2 -- -- 86
2019-02-03 12:00:00 3.8 3 Oeste 14 Este 0.2 -- -- 95
2019-02-03 11:00:00 2.5 3 Norte 9 Oeste 0.2 -- -- 98
2019-02-03 10:00:00 1.7 4 Oeste 13 Este 0.8 -- -- 97
2019-02-03 09:00:00 2.2 3 Sur 21 Este 0.4 -- -- 94
2019-02-03 08:00:00 2.4 9 Este 19 Oeste 1.2 -- -- 89
2019-02-03 07:00:00 3.7 9 Noroeste 22 Noroeste 0 -- -- 81
2019-02-03 06:00:00 3.5 5 Noroeste 37 Noroeste 0 -- -- 80
2019-02-03 05:00:00 3.6 9 Norte 47 Norte 0.4 -- -- 78
2019-02-03 04:00:00 3.4 4 Noroeste 31 Norte 1.6 -- -- 75
2019-02-03 03:00:00 2.6 8 Noroeste 18 Este 0.4 -- -- 87
2019-02-03 02:00:00 3.4 14 Noroeste 35 Oeste 1.8 -- -- 81
2019-02-03 01:00:00 4.7 7 Noroeste 24 Oeste 0 -- -- 68
2019-02-03 00:00:00 4.3 13 Noroeste 29 Norte 1 -- -- 77
2019-02-02 23:00:00 2 5 Sudoeste 29 Oeste 5.4 -- -- 94
2019-02-02 22:00:00 2.8 6 Oeste 18 Oeste 0.4 -- -- 89
2019-02-02 21:00:00 2.7 12 Noroeste 38 Norte 2.6 -- -- 90
2019-02-02 20:00:00 3.5 5 Norte 46 Norte 0.4 -- -- 84
2019-02-02 19:00:00 4 14 Norte 41 Norte 3.6 -- -- 87
2019-02-02 18:00:00 2.8 5 Oeste 36 Noroeste 4.4 -- -- 89
2019-02-02 17:00:00 3.9 5 Noroeste 20 Noroeste 3.8 -- -- 86
2019-02-02 16:00:00 6 6 Oeste 26 Norte 0.4 -- -- 72
2019-02-02 15:00:00 6.6 10 Norte 31 Noroeste 0.8 -- -- 64
2019-02-02 14:00:00 6.4 10 Noroeste 39 Noroeste 0 -- -- 68
2019-02-02 13:00:00 4.7 7 Noroeste 35 Noroeste 0.8 -- -- 82
2019-02-02 12:00:00 3.7 8 Oeste 27 Oeste 4.6 -- -- 93
2019-02-02 11:00:00 3.5 12 Norte 51 Norte 3.2 -- -- 91
2019-02-02 10:00:00 3.9 13 Noroeste 40 Noroeste 2.6 -- -- 90
2019-02-02 09:00:00 4.7 5 Sudeste 44 Noroeste 2.4 -- -- 90
2019-02-02 08:00:00 4.4 13 Noroeste 37 Noroeste 6.2 -- -- 94
2019-02-02 07:00:00 2.5 8 Oeste 26 Oeste 6.4 -- -- 100
2019-02-02 06:00:00 2.7 16 Oeste 43 Oeste 6.8 -- -- 97
2019-02-02 05:00:00 4 10 Oeste 28 Oeste 3.4 -- -- 95
2019-02-02 04:00:00 4.8 12 Oeste 21 Oeste 0 -- -- 91
2019-02-02 03:00:00 4.8 14 Oeste 35 Sudoeste 0.6 -- -- 92
2019-02-02 02:00:00 4.1 6 Sudoeste 10 Sudoeste 0 -- -- 95
2019-02-02 01:00:00 3.9 2 Sur 9 Sur 0 -- -- 96
2019-02-02 00:00:00 3.9 5 Sudoeste 28 Oeste 0.2 -- -- 96
2019-02-01 23:00:00 3.4 2 Este 8 Oeste 0 -- -- 98
2019-02-01 22:00:00 3.5 3 Oeste 6 Oeste 0 -- -- 97
2019-02-01 21:00:00 3.7 0 Calma 8 Noroeste 0 -- -- 94
2019-02-01 20:00:00 4.3 9 Noroeste 12 Norte 0 -- -- 91
2019-02-01 19:00:00 4.9 7 Sudeste 34 Noroeste 0.2 -- -- 88
2019-02-01 18:00:00 5.9 30 Oeste 69 Oeste 0.4 -- -- 84
2019-02-01 17:00:00 8 17 Oeste 39 Sudoeste 0.2 -- -- 69
2019-02-01 16:00:00 7.4 15 Oeste 37 Sudoeste 0.8 -- -- 85
2019-02-01 15:00:00 11.3 22 Sudoeste 42 Sudoeste 0 -- -- 56
2019-02-01 14:00:00 10.8 23 Oeste 57 Sudoeste 0 -- -- 56
2019-02-01 13:00:00 11.3 34 Oeste 64 Oeste 0 -- -- 54
2019-02-01 12:00:00 10.3 23 Oeste 56 Sudoeste 0 -- -- 57
2019-02-01 11:00:00 9.8 20 Sudoeste 39 Oeste 0 -- -- 59
2019-02-01 10:00:00 9.3 15 Oeste 61 Noroeste 0 -- -- 63
2019-02-01 09:00:00 9.2 31 Oeste 63 Oeste 0 -- -- 62
2019-02-01 08:00:00 8.9 32 Oeste 62 Oeste 0 -- -- 73
2019-02-01 07:00:00 7.3 10 Oeste 27 Sudoeste 0 -- -- 89
2019-02-01 06:00:00 6.3 5 Sur 10 Sudeste 0 -- -- 100
2019-02-01 05:00:00 6.8 4 Nordeste 9 Nordeste 0 -- -- 100
2019-02-01 04:00:00 7.4 4 Sudeste 10 Este 0 -- -- 100
2019-02-01 03:00:00 7.8 5 Este 9 Este 0.8 -- -- 100
2019-02-01 02:00:00 8 4 Norte 12 Oeste 0.6 -- -- 100
2019-02-01 01:00:00 8.2 3 Sudeste 17 Noroeste 0.2 -- -- 100
2019-02-01 00:00:00 8.1 5 Nordeste 18 Noroeste 1.8 -- -- 100
2019-01-31 23:00:00 8.4 3 Noroeste 10 Este 7.6 -- -- 100
2019-01-31 22:00:00 8.6 8 Este 15 Este 5.4 -- -- 99
2019-01-31 21:00:00 9.4 2 Sudeste 13 Sudeste 8 -- -- 98
2019-01-31 20:00:00 10.5 4 Este 41 Sudoeste 7.6 -- -- 95
2019-01-31 19:00:00 14.8 34 Oeste 69 Oeste 0 -- -- 75
2019-01-31 18:00:00 15.4 29 Oeste 73 Oeste 0 -- -- 70
2019-01-31 17:00:00 14.6 20 Oeste 54 Oeste 0.2 -- -- 76
2019-01-31 16:00:00 15 21 Oeste 41 Oeste 0 -- -- 73
2019-01-31 15:00:00 14.3 11 Sudoeste 32 Sudoeste 0 -- -- 76
2019-01-31 14:00:00 13.2 10 Sudoeste 23 Oeste 0 -- -- 82
2019-01-31 13:00:00 11.9 3 Norte 7 Noroeste 0 -- -- 87
2019-01-31 12:00:00 10.5 6 Noroeste 23 Sudeste 0 -- -- 93
2019-01-31 11:00:00 9.4 5 Oeste 13 Oeste 0.4 -- -- 95
2019-01-31 10:00:00 8.1 3 Norte 12 Noroeste 1.2 -- -- 97
2019-01-31 09:00:00 7.3 7 Noroeste 16 Oeste 2.4 -- -- 98
2019-01-31 08:00:00 7.4 9 Noroeste 19 Noroeste 1.8 -- -- 96
2019-01-31 07:00:00 6.9 8 Noroeste 15 Noroeste 3 -- -- 96
2019-01-31 06:00:00 6.7 9 Oeste 29 Sudoeste 1.4 -- -- 94
2019-01-31 05:00:00 6.6 11 Oeste 22 Sudoeste 0.6 -- -- 93
2019-01-31 04:00:00 6.5 7 Sudoeste 19 Oeste 1.6 -- -- 92
2019-01-31 03:00:00 5.9 9 Oeste 21 Sur 1.8 -- -- 92
2019-01-31 02:00:00 5.3 8 Noroeste 24 Sudoeste 1.4 -- -- 93
2019-01-31 01:00:00 5.4 13 Oeste 24 Oeste 1 -- -- 91
2019-01-31 00:00:00 5.4 10 Oeste 31 Sudoeste 1.2 -- -- 91
2019-01-30 23:00:00 6.3 13 Oeste 28 Sur 0.8 -- -- 89
2019-01-30 22:00:00 7.2 5 Oeste 24 Sudoeste 0 -- -- 85
2019-01-30 21:00:00 7.5 8 Oeste 20 Sudoeste 0.2 -- -- 82
2019-01-30 20:00:00 7.9 5 Oeste 9 Oeste 0 -- -- 70
2019-01-30 19:00:00 7.5 0 Calma 9 Noroeste 0 -- -- 73
2019-01-30 18:00:00 7.8 3 Noroeste 5 Noroeste 0 -- -- 64
2019-01-30 17:00:00 8.8 2 Sudoeste 13 Sur 0 -- -- 64
2019-01-30 16:00:00 9.4 8 Sur 15 Sur 0 -- -- 64
2019-01-30 15:00:00 8.8 6 Oeste 17 Oeste 0 -- -- 68
2019-01-30 14:00:00 8.5 7 Sur 13 Sudoeste 0 -- -- 80
2019-01-30 13:00:00 7.6 6 Sur 13 Sudeste 0 -- -- 84
2019-01-30 12:00:00 5.1 3 Noroeste 9 Sudoeste 0 -- -- 100
2019-01-30 11:00:00 4.1 2 Sudoeste 5 Sudeste 0.8 -- -- 100
2019-01-30 10:00:00 3.5 0 Calma 9 Sur 0.6 -- -- 100
2019-01-30 09:00:00 2.9 2 Este 5 Este 1.4 -- -- 100
2019-01-30 08:00:00 2.9 0 Calma 6 Noroeste 2 -- -- 99
2019-01-30 07:00:00 2.8 4 Noroeste 15 Oeste 0.6 -- -- 98
2019-01-30 06:00:00 3 10 Noroeste 23 Sudoeste 4.6 -- -- 97
2019-01-30 05:00:00 4 8 Oeste 24 Oeste 1 -- -- 97
2019-01-30 04:00:00 4.4 13 Oeste 24 Sudoeste 1 -- -- 95
2019-01-30 03:00:00 4.4 4 Sudoeste 14 Sudoeste 0.8 -- -- 95
2019-01-30 02:00:00 4.8 6 Norte 18 Noroeste 1.2 -- -- 90
2019-01-30 01:00:00 5.2 8 Sudeste 28 Norte 0 -- -- 84
2019-01-30 00:00:00 5 5 Sur 20 Oeste 0.4 -- -- 89
2019-01-29 23:00:00 5.3 6 Sur 40 Norte 1.4 -- -- 89
2019-01-29 22:00:00 6.7 14 Noroeste 34 Sudoeste -- -- -- 78
2019-01-29 21:00:00 6.3 9 Oeste 42 Oeste 2 -- -- 84
2019-01-29 20:00:00 7.2 12 Noroeste 41 Oeste 0.4 -- -- 84
2019-01-29 19:00:00 7.2 12 Sudoeste 35 Oeste 0.4 -- -- 82
2019-01-29 18:00:00 7.9 22 Oeste 53 Oeste 0.8 -- -- 85
2019-01-29 17:00:00 8.5 25 Oeste 55 Oeste 2 -- -- 85
2019-01-29 16:00:00 8.1 14 Oeste 32 Oeste 2 -- -- 94
2019-01-29 15:00:00 7.7 6 Oeste 16 Sudoeste 1.8 -- -- 93
2019-01-29 14:00:00 7.4 11 Oeste 22 Oeste 1.2 -- -- 91
2019-01-29 13:00:00 7.9 13 Oeste 20 Oeste 0 -- -- 86
2019-01-29 12:00:00 7.3 6 Sudoeste 16 Sudoeste 0 -- -- 84
2019-01-29 11:00:00 6.3 5 Oeste 14 Oeste 0.2 -- -- 98
2019-01-29 10:00:00 5.5 3 Oeste 10 Oeste 0.2 -- -- 100
2019-01-29 09:00:00 5.4 3 Sudoeste 8 Oeste 0 -- -- 100
2019-01-29 08:00:00 5.6 5 Noroeste 9 Noroeste 0 -- -- 100
2019-01-29 07:00:00 5.4 6 Noroeste 8 Noroeste 0 -- -- 100
2019-01-29 06:00:00 5.5 3 Noroeste 6 Sudoeste 0.2 -- -- 100
2019-01-29 05:00:00 5.4 2 Sudoeste 7 Este 0.2 -- -- 100
2019-01-29 04:00:00 5.3 6 Este 9 Este 0.2 -- -- 100
2019-01-29 03:00:00 5.5 3 Oeste 10 Oeste 1 -- -- 100
2019-01-29 02:00:00 5.6 3 Este 6 Este 1.2 -- -- 99
2019-01-29 01:00:00 5.7 0 Calma 12 Este 0.8 -- -- 96
2019-01-29 00:00:00 6 6 Sudeste 28 Norte 0.6 -- -- 93
2019-01-28 23:00:00 6.1 6 Este 23 Norte 2.6 -- -- 98
2019-01-28 22:00:00 6.5 4 Sudoeste 20 Norte 1 -- -- 95
2019-01-28 21:00:00 6.9 9 Noroeste 34 Noroeste 1 -- -- 89
2019-01-28 20:00:00 6.9 5 Noroeste 31 Noroeste 1.4 -- -- 91
2019-01-28 19:00:00 6.9 8 Noroeste 51 Noroeste 3.2 -- -- 92
2019-01-28 18:00:00 7.6 15 Norte 39 Noroeste 1.2 -- -- 86
2019-01-28 17:00:00 8.6 12 Noroeste 44 Oeste 0 -- -- 79
2019-01-28 16:00:00 8 14 Noroeste 45 Oeste 1.2 -- -- 87
2019-01-28 15:00:00 8.8 18 Noroeste 45 Noroeste 0.2 -- -- 82
2019-01-28 14:00:00 8.5 12 Noroeste 41 Noroeste 0.8 -- -- 84
2019-01-28 13:00:00 7.5 11 Noroeste 46 Noroeste 1.6 -- -- 86
2019-01-28 12:00:00 7.9 16 Noroeste 54 Noroeste 1.8 -- -- 87
2019-01-28 11:00:00 7.9 16 Noroeste 45 Noroeste 1.6 -- -- 89
2019-01-28 10:00:00 7.7 17 Noroeste 60 Norte 3.4 -- -- 89
2019-01-28 09:00:00 7.9 22 Noroeste 66 Noroeste 4.8 -- -- 91
2019-01-28 08:00:00 8.2 6 Sudoeste 48 Oeste 2 -- -- 93
2019-01-28 07:00:00 8 12 Oeste 36 Oeste 0.8 -- -- 91
2019-01-28 06:00:00 6.7 7 Sudoeste 28 Oeste 1.6 -- -- 100
2019-01-28 05:00:00 5.3 6 Sudeste 12 Sudeste 1.8 -- -- 100
2019-01-28 04:00:00 5 5 Sudeste 12 Oeste 1 -- -- 98
2019-01-28 03:00:00 5.3 9 Oeste 35 Oeste 0.4 -- -- 96
2019-01-28 02:00:00 5 5 Sur 19 Oeste 0.8 -- -- 98
2019-01-28 01:00:00 4.7 2 Norte 9 Sudeste 2 -- -- 99
2019-01-28 00:00:00 4.8 3 Sur 20 Noroeste 2.8 -- -- 98
2019-01-27 23:00:00 5.1 3 Sur 20 Noroeste 3.4 -- -- 98
2019-01-27 22:00:00 5.3 7 Oeste 22 Noroeste 1.2 -- -- 97
2019-01-27 21:00:00 6 4 Sudoeste 29 Norte 0.8 -- -- 88
2019-01-27 20:00:00 6 4 Oeste 18 Norte 0 -- -- 88
2019-01-27 19:00:00 6.2 14 Oeste 30 Oeste 0.2 -- -- 87
2019-01-27 18:00:00 6.4 6 Este 27 Noroeste 0.8 -- -- 88
2019-01-27 17:00:00 7 11 Noroeste 41 Norte 0.2 -- -- 82
2019-01-27 16:00:00 6.4 17 Norte 39 Noroeste 0.4 -- -- 85
2019-01-27 15:00:00 5.9 15 Norte 42 Noroeste 3.6 -- -- 87
2019-01-27 14:00:00 6.8 10 Noroeste 35 Noroeste 2 -- -- 90
2019-01-27 13:00:00 7 8 Oeste 29 Noroeste 1 -- -- 90
2019-01-27 12:00:00 6.1 5 Este 32 Oeste 3.6 -- -- 94
2019-01-27 11:00:00 6.3 4 Oeste 35 Oeste 1.2 -- -- 90
2019-01-27 10:00:00 6.5 23 Oeste 45 Oeste 0.6 -- -- 89
2019-01-27 09:00:00 6.6 12 Oeste 27 Noroeste 0 -- -- 88
2019-01-27 08:00:00 6.8 17 Oeste 51 Oeste 0.2 -- -- 87
2019-01-27 07:00:00 7.5 10 Oeste 35 Oeste 0.8 -- -- 90
2019-01-27 06:00:00 6.8 5 Sur 16 Oeste 0.4 -- -- 100
2019-01-27 05:00:00 5.7 4 Este 13 Sudeste 0.4 -- -- 100
2019-01-27 04:00:00 5.6 2 Nordeste 5 Este 0 -- -- 100
2019-01-27 03:00:00 5.4 2 Noroeste 5 Noroeste 0 -- -- 100
2019-01-27 02:00:00 5.5 0 Calma 6 Sudeste 0 -- -- 100
2019-01-27 01:00:00 5.5 3 Sudeste 5 Oeste 0 -- -- 100
2019-01-27 00:00:00 5.4 0 Calma 6 Oeste 0 -- -- 100
2019-01-26 23:00:00 5.8 2 Nordeste 4 Noroeste 0 -- -- 100
2019-01-26 22:00:00 5.9 0 Calma 5 Sudeste 0 -- -- 99
2019-01-26 21:00:00 6.7 3 Oeste 6 Oeste 0 -- -- 98
2019-01-26 20:00:00 8 0 Calma 5 Noroeste 0 -- -- 94
2019-01-26 19:00:00 9.4 2 Sur 6 Oeste 0 -- -- 88
2019-01-26 18:00:00 11.4 0 Calma 6 Sudoeste 0 -- -- 80
2019-01-26 17:00:00 13 4 Sudoeste 10 Sur 0 -- -- 73
2019-01-26 16:00:00 13.2 5 Sudoeste 11 Oeste 0 -- -- 69
2019-01-26 15:00:00 12.5 3 Sudoeste 9 Oeste 0 -- -- 73
2019-01-26 14:00:00 11.5 4 Sur 14 Sudeste 0 -- -- 78
2019-01-26 13:00:00 9 3 Sudoeste 8 Oeste 0 -- -- 96
2019-01-26 12:00:00 9.3 3 Sudoeste 7 Sudoeste 0 -- -- 100
2019-01-26 11:00:00 8.3 2 Sur 6 Sudoeste 0 -- -- 100
2019-01-26 10:00:00 7.6 0 Calma 6 Sudoeste 0 -- -- 100
2019-01-26 09:00:00 7.3 2 Oeste 4 Sudoeste 0 -- -- 100
2019-01-26 08:00:00 7.3 0 Calma 4 Oeste 0 -- -- 100
2019-01-26 07:00:00 7.3 0 Calma 4 Este 0 -- -- 100
2019-01-26 06:00:00 7.3 0 Calma 4 Oeste 0 -- -- 100
2019-01-26 05:00:00 7.4 2 Este 4 Sudeste 0 -- -- 100
2019-01-26 04:00:00 7.7 0 Calma 5 Noroeste 0 -- -- 100
2019-01-26 03:00:00 7.8 0 Calma 8 Este 0 -- -- 100
2019-01-26 02:00:00 8 2 Noroeste 11 Este 0 -- -- 100
2019-01-26 01:00:00 8.1 2 Sudeste 6 Sudeste 0.2 -- -- 100
2019-01-26 00:00:00 8.1 4 Este 8 Este 0.4 -- -- 100
2019-01-25 23:00:00 8.2 4 Nordeste 7 Oeste 0 -- -- 100
2019-01-25 22:00:00 8.2 4 Noroeste 9 Sudeste 0.2 -- -- 100
2019-01-25 21:00:00 8.1 5 Este 9 Sudeste 0.6 -- -- 100
2019-01-25 20:00:00 8.2 4 Este 8 Este 0.8 -- -- 100
2019-01-25 19:00:00 8.4 3 Sudeste 10 Oeste 0.6 -- -- 98
2019-01-25 18:00:00 8.6 6 Noroeste 26 Oeste 0.4 -- -- 97
2019-01-25 17:00:00 8.6 5 Oeste 17 Oeste 0.4 -- -- 98
2019-01-25 16:00:00 8.9 4 Noroeste 29 Noroeste 0 -- -- 95
2019-01-25 15:00:00 9.4 4 Oeste 24 Noroeste 0.2 -- -- 96
2019-01-25 14:00:00 9.2 4 Sudeste 9 Sudeste 1.2 -- -- 100
2019-01-25 13:00:00 9.4 6 Norte 26 Norte 0 -- -- 99
2019-01-25 12:00:00 9.1 6 Sudeste 13 Oeste 1 -- -- 100
2019-01-25 11:00:00 9 10 Noroeste 33 Oeste 0.2 -- -- 99
2019-01-25 10:00:00 8.5 11 Noroeste 32 Noroeste 1 -- -- 100
2019-01-25 09:00:00 8.4 3 Sudeste 10 Sudeste 3.6 -- -- 100
2019-01-25 08:00:00 8.4 4 Sudeste 11 Oeste 2.2 -- -- 100
2019-01-25 07:00:00 8.4 6 Noroeste 21 Norte 1.6 -- -- 100
2019-01-25 06:00:00 8.1 5 Nordeste 17 Oeste 1 -- -- 100
2019-01-25 05:00:00 7.8 9 Noroeste 20 Noroeste 2 -- -- 100
2019-01-25 04:00:00 6.6 3 Nordeste 20 Norte 2.2 -- -- 100
2019-01-25 03:00:00 4.6 2 Este 8 Este 1.4 -- -- 100
2019-01-25 02:00:00 4.4 3 Oeste 5 Noroeste 0.2 -- -- 100
2019-01-25 01:00:00 4.3 3 Noroeste 5 Noroeste 0.2 -- -- 100
2019-01-25 00:00:00 4.2 0 Calma 5 Este 0.4 -- -- 100
2019-01-24 23:00:00 4.1 3 Este 5 Este 1.2 -- -- 100
2019-01-24 22:00:00 4.2 2 Norte 5 Este 1.8 -- -- 100
2019-01-24 21:00:00 4.1 4 Nordeste 6 Este 0.8 -- -- 100
2019-01-24 20:00:00 4.1 0 Calma 4 Este 0.4 -- -- 100
2019-01-24 19:00:00 4.1 3 Sudoeste 5 Oeste 0.4 -- -- 100
2019-01-24 18:00:00 4.1 3 Noroeste 5 Nordeste 1 -- -- 100
2019-01-24 17:00:00 4 4 Este 7 Este 1.4 -- -- 100
2019-01-24 16:00:00 3.8 4 Este 8 Este 1.2 -- -- 100
2019-01-24 15:00:00 3.6 3 Este 6 Este 1.2 -- -- 100
2019-01-24 14:00:00 3.5 0 Calma 4 Oeste 1.6 -- -- 100
2019-01-24 13:00:00 3.3 2 Sudoeste 11 Oeste 0.6 -- -- 100
2019-01-24 12:00:00 3.1 8 Oeste 12 Oeste 0.4 -- -- 100
2019-01-24 11:00:00 3.3 4 Oeste 5 Oeste 1.2 -- -- 100
2019-01-24 10:00:00 3.2 2 Sudoeste 12 Nordeste 2 -- -- 100
2019-01-24 09:00:00 3.3 5 Nordeste 13 Nordeste 3 -- -- 100
2019-01-24 08:00:00 4 5 Este 10 Este 4 -- -- 100
2019-01-24 07:00:00 4.5 5 Sudeste 18 Nordeste 3.4 -- -- 100
2019-01-24 06:00:00 4.5 4 Sudoeste 17 Noroeste 3.2 -- -- 100
2019-01-24 05:00:00 4.6 4 Sur 27 Noroeste 4.4 -- -- 98
2019-01-24 04:00:00 4.7 6 Noroeste 27 Norte 4.4 -- -- 96
2019-01-24 03:00:00 4.8 6 Noroeste 27 Noroeste 5.2 -- -- 96
2019-01-24 02:00:00 5 8 Norte 30 Oeste 6.6 -- -- 96
2019-01-24 01:00:00 5.2 10 Norte 39 Norte 5.4 -- -- 97
2019-01-24 00:00:00 5.5 11 Norte 51 Noroeste 4.4 -- -- 94
2019-01-23 23:00:00 5.8 12 Norte 49 Norte 6.6 -- -- 95
2019-01-23 22:00:00 6.2 10 Oeste 48 Noroeste 7.4 -- -- 96
2019-01-23 21:00:00 6.5 9 Noroeste 46 Noroeste 5.2 -- -- 95
2019-01-23 20:00:00 6.6 5 Nordeste 56 Noroeste 3.4 -- -- 95
2019-01-23 19:00:00 6.6 9 Norte 57 Noroeste 8.2 -- -- 97
2019-01-23 18:00:00 7 14 Noroeste 54 Noroeste 1.6 -- -- 94
2019-01-23 17:00:00 6.8 15 Noroeste 42 Noroeste 4.6 -- -- 95
2019-01-23 16:00:00 6.9 20 Noroeste 48 Noroeste 3.8 -- -- 92
2019-01-23 15:00:00 7.2 18 Norte 37 Norte 3.6 -- -- 93
2019-01-23 14:00:00 7.1 12 Noroeste 33 Norte 4.8 -- -- 95
2019-01-23 13:00:00 7.3 10 Norte 39 Oeste 4.2 -- -- 92
2019-01-23 12:00:00 7.8 12 Noroeste 36 Noroeste 3.6 -- -- 93
2019-01-23 11:00:00 7.4 12 Noroeste 52 Noroeste 5.8 -- -- 94
2019-01-23 10:00:00 8.1 18 Noroeste 62 Noroeste 2.4 -- -- 93
2019-01-23 09:00:00 8.4 21 Noroeste 66 Norte 2.6 -- -- 93
2019-01-23 08:00:00 8.8 9 Oeste 47 Oeste 2.4 -- -- 99
2019-01-23 07:00:00 5 4 Sudeste 13 Sudeste 4.2 -- -- 100
2019-01-23 06:00:00 4.5 4 Sudeste 9 Oeste 3.8 -- -- 100
2019-01-23 05:00:00 4.3 3 Sur 6 Sur 3 -- -- 100
2019-01-23 04:00:00 4.4 2 Sudoeste 10 Oeste 3 -- -- 100
2019-01-23 03:00:00 4.4 8 Oeste 12 Oeste 1.8 -- -- 100
2019-01-23 02:00:00 4.3 8 Oeste 13 Oeste 1.2 -- -- 100
2019-01-23 01:00:00 3.9 5 Oeste 10 Sudoeste 1.6 -- -- 100
2019-01-23 00:00:00 3.8 3 Sudoeste 8 Sudoeste 0.8 -- -- 100
2019-01-22 23:00:00 3.7 5 Oeste 9 Sudeste 0.6 -- -- 99
2019-01-22 22:00:00 3.9 6 Sudeste 10 Sudeste 1.4 -- -- 98
2019-01-22 21:00:00 4.1 5 Sudoeste 21 Oeste 1.8 -- -- 98
2019-01-22 20:00:00 4.6 12 Oeste 28 Oeste 1.6 -- -- 97
2019-01-22 19:00:00 5 12 Oeste 29 Oeste 0.4 -- -- 96
2019-01-22 18:00:00 4.9 14 Oeste 27 Oeste 0 -- -- 99
2019-01-22 17:00:00 4.4 6 Oeste 14 Oeste 0.2 -- -- 100
2019-01-22 16:00:00 4.4 11 Oeste 19 Oeste 3.6 -- -- 99
2019-01-22 15:00:00 5.1 6 Oeste 12 Oeste 2.2 -- -- 99
2019-01-22 14:00:00 4.8 5 Este 17 Oeste 4 -- -- 99
2019-01-22 13:00:00 4.9 2 Sur 15 Sudoeste 1.6 -- -- 100
2019-01-22 12:00:00 4.3 4 Oeste 13 Noroeste 1 -- -- 100
2019-01-22 11:00:00 3.6 3 Sur 6 Este 0 -- -- 100
2019-01-22 10:00:00 3.1 4 Oeste 6 Oeste 0.2 -- -- 100
2019-01-22 09:00:00 2.3 2 Sudeste 8 Noroeste 0 -- -- 100
2019-01-22 08:00:00 2 0 Calma 5 Oeste 0.2 -- -- 100
2019-01-22 07:00:00 1.8 0 Calma 5 Oeste 0 -- -- 100
2019-01-22 06:00:00 2 3 Oeste 6 Sudoeste 0 -- -- 100
2019-01-22 05:00:00 1.5 4 Noroeste 6 Noroeste 0 -- -- 100
2019-01-22 04:00:00 1.6 5 Oeste 8 Oeste 0 -- -- 100
2019-01-22 03:00:00 1.8 4 Sudoeste 8 Oeste 0 -- -- 98
2019-01-22 02:00:00 2.5 0 Calma 4 Oeste 0 -- -- 98
2019-01-22 01:00:00 2.7 0 Calma 7 Noroeste 0 -- -- 97
2019-01-22 00:00:00 3.1 4 Noroeste 9 Este 0 -- -- 96
2019-01-21 23:00:00 3 3 Nordeste 14 Oeste 0 -- -- 96
2019-01-21 22:00:00 4.2 2 Sur 6 Oeste 0 -- -- 92
2019-01-21 21:00:00 4.5 2 Sudeste 6 Norte 0 -- -- 91
2019-01-21 20:00:00 4.9 3 Noroeste 14 Noroeste 0 -- -- 86
2019-01-21 19:00:00 5 6 Noroeste 12 Oeste 0 -- -- 87
2019-01-21 18:00:00 5.6 2 Oeste 8 Este 0 -- -- 87
2019-01-21 17:00:00 6.1 3 Este 11 Norte 0 -- -- 87
2019-01-21 16:00:00 6.1 5 Este 10 Noroeste 0 -- -- 91
2019-01-21 15:00:00 5.4 3 Norte 13 Este 0 -- -- 98
2019-01-21 14:00:00 5.2 5 Norte 14 Oeste 1 -- -- 98
2019-01-21 13:00:00 5.1 9 Este 13 Este 1 -- -- 99
2019-01-21 12:00:00 5.2 3 Este 17 Norte 1.4 -- -- 98
2019-01-21 11:00:00 5.3 9 Norte 22 Oeste 0.4 -- -- 96
2019-01-21 10:00:00 5.1 9 Oeste 22 Oeste 0 -- -- 100
2019-01-21 09:00:00 4.7 4 Oeste 10 Noroeste 0.6 -- -- 100
2019-01-21 08:00:00 4.7 3 Sudeste 10 Oeste 0 -- -- 100
2019-01-21 07:00:00 4.7 5 Sudoeste 17 Este 0.4 -- -- 100
2019-01-21 06:00:00 4.7 6 Nordeste 15 Este 1.6 -- -- 100
2019-01-21 05:00:00 4.9 4 Este 12 Norte 2.4 -- -- 100
2019-01-21 04:00:00 5.2 7 Este 14 Este 0 -- -- 100
2019-01-21 03:00:00 5.1 4 Sudoeste 10 Sudeste 1.2 -- -- 100
2019-01-21 02:00:00 5.4 3 Sudoeste 12 Este 0.2 -- -- 100
2019-01-21 01:00:00 5.5 5 Este 12 Oeste 0.6 -- -- 100
2019-01-21 00:00:00 5.6 6 Norte 17 Norte 1.6 -- -- 100
2019-01-20 23:00:00 5.7 3 Sudeste 14 Oeste 1.2 -- -- 100
2019-01-20 22:00:00 6 3 Sur 14 Noroeste 1.2 -- -- 98
2019-01-20 21:00:00 6.2 5 Este 12 Noroeste 2.8 -- -- 99
2019-01-20 20:00:00 6.8 4 Noroeste 19 Norte 0.8 -- -- 97
2019-01-20 19:00:00 6.6 5 Oeste 12 Oeste 0.8 -- -- 99
2019-01-20 18:00:00 6.9 7 Noroeste 22 Norte 1 -- -- 99
2019-01-20 17:00:00 7 3 Noroeste 6 Este 0.2 -- -- 99
2019-01-20 16:00:00 7.1 4 Este 16 Noroeste 1 -- -- 100
2019-01-20 15:00:00 8.2 4 Sudeste 17 Sudoeste 0.2 -- -- 100
2019-01-20 14:00:00 6.9 5 Sudeste 14 Este 4 -- -- 100
2019-01-20 13:00:00 7 3 Sur 16 Este 1 -- -- 100
2019-01-20 12:00:00 6.5 5 Este 15 Noroeste 2.6 -- -- 100
2019-01-20 11:00:00 6 5 Este 22 Noroeste 3.4 -- -- 100
2019-01-20 10:00:00 5.4 6 Sudeste 8 Sudeste 0.4 -- -- 100
2019-01-20 09:00:00 4.9 3 Nordeste 13 Nordeste 1.2 -- -- 100
2019-01-20 08:00:00 5.1 0 Calma 5 Oeste 1 -- -- 100
2019-01-20 07:00:00 5.2 3 Sudoeste 5 Sudoeste 1.6 -- -- 100
2019-01-20 06:00:00 5.1 3 Noroeste 5 Oeste 0 -- -- 100
2019-01-20 05:00:00 5.4 3 Noroeste 4 Noroeste 0 -- -- 100
2019-01-20 04:00:00 5.4 2 Noroeste 5 Noroeste 0 -- -- 99
2019-01-20 03:00:00 5.4 0 Calma 5 Este 0.4 -- -- 98
2019-01-20 02:00:00 5.7 3 Noroeste 4 Noroeste 0.2 -- -- 95
2019-01-20 01:00:00 6.2 3 Sudoeste 12 Noroeste 0.2 -- -- 91
2019-01-20 00:00:00 6.7 6 Oeste 22 Oeste 0 -- -- 85
2019-01-19 23:00:00 6.6 9 Oeste 19 Oeste 0.2 -- -- 88
2019-01-19 22:00:00 7.2 5 Este 18 Sudeste 0.2 -- -- 84
2019-01-19 21:00:00 7.8 9 Sur 24 Sudeste 0 -- -- 79
2019-01-19 20:00:00 8.3 10 Sur 24 Sudeste 0 -- -- 73
2019-01-19 19:00:00 8.1 5 Sudoeste 19 Sudoeste 0 -- -- 74
2019-01-19 18:00:00 8.5 9 Sudoeste 32 Sur 0 -- -- 72
2019-01-19 17:00:00 9 16 Sur 31 Sudeste 0 -- -- 68
2019-01-19 16:00:00 9.4 13 Sur 24 Sur 0 -- -- 71
2019-01-19 15:00:00 9.6 15 Sur 32 Sur 0 -- -- 72
2019-01-19 14:00:00 9.4 11 Oeste 20 Oeste 0 -- -- 73
2019-01-19 13:00:00 8.8 4 Sudoeste 12 Sudoeste 0 -- -- 86
2019-01-19 12:00:00 7.1 0 Calma 8 Oeste 0 -- -- 100
2019-01-19 11:00:00 3.6 3 Sur 6 Noroeste 0 -- -- 100
2019-01-19 10:00:00 2.4 2 Sur 6 Sudeste 0 -- -- 100
2019-01-19 09:00:00 2.2 2 Este 6 Este 0 -- -- 100
2019-01-19 08:00:00 2.7 4 Nordeste 12 Noroeste 0 -- -- 100
2019-01-19 07:00:00 3.5 3 Sudeste 7 Este 0 -- -- 100
2019-01-19 06:00:00 3.8 2 Sudoeste 9 Sudoeste 0 -- -- 100
2019-01-19 05:00:00 4.1 2 Sudoeste 10 Noroeste 0 -- -- 100
2019-01-19 04:00:00 4.1 3 Sudoeste 7 Oeste 0 -- -- 100
2019-01-19 03:00:00 4 5 Noroeste 6 Oeste 0 -- -- 100
2019-01-19 02:00:00 4.2 4 Este 10 Oeste 0 -- -- 100
2019-01-19 01:00:00 4.1 5 Noroeste 7 Noroeste 0.4 -- -- 99
2019-01-19 00:00:00 4.1 4 Sur 8 Sudoeste 0.2 -- -- 99